Time;durP1;ratioP1;P1;durP2;ratioP2;P2;SDS_P1;SDS_P2;PMS_P1;PMS_P2;Temp;Humidity;BMP_temperature;BMP_pressure;BME280_temperature;BME280_humidity;BME280_pressure;Samples;Min_cycle;Max_cycle;Signal;HPM_P1;HPM_P2
2021/09/27 00:02:07;;;;;;;22.85;15.57;;;;;;;;;;5021855;28;20033;-75
2021/09/27 00:04:33;;;;;;;23.58;15.88;;;;;;;;;;5025408;28;20056;-75
2021/09/27 00:06:59;;;;;;;26.85;17.83;;;;;;;;;;5033513;28;20017;-75
2021/09/27 00:09:32;;;;;;;23.58;17.15;;;;;;;;;;5024049;28;20056;-75
2021/09/27 00:12:03;;;;;;;24.73;18.25;;;;;;;;;;5013695;28;20026;-75
2021/09/27 00:14:29;;;;;;;25.92;17.35;;;;;;;;;;5022232;28;20029;-75
2021/09/27 00:16:55;;;;;;;25.10;17.35;;;;;;;;;;5015595;28;20033;-75
2021/09/27 00:19:24;;;;;;;23.95;16.33;;;;;;;;;;5018744;28;20037;-76
2021/09/27 00:21:50;;;;;;;24.42;16.30;;;;;;;;;;5013506;28;20028;-75
2021/09/27 00:24:16;;;;;;;25.95;17.50;;;;;;;;;;5019814;28;20409;-75
2021/09/27 00:26:42;;;;;;;27.75;18.00;;;;;;;;;;5032801;28;20029;-75
2021/09/27 00:29:08;;;;;;;22.33;16.73;;;;;;;;;;5032275;28;20119;-75
2021/09/27 00:31:34;;;;;;;22.23;16.45;;;;;;;;;;5032148;28;20029;-75
2021/09/27 00:34:00;;;;;;;24.15;16.73;;;;;;;;;;5016924;28;20060;-75
2021/09/27 00:36:26;;;;;;;25.30;17.55;;;;;;;;;;5021042;28;20450;-75
2021/09/27 00:38:52;;;;;;;25.60;16.95;;;;;;;;;;5014673;28;20038;-75
2021/09/27 00:41:19;;;;;;;24.38;17.70;;;;;;;;;;5032685;28;20036;-75
2021/09/27 00:43:45;;;;;;;23.08;17.20;;;;;;;;;;5032181;28;20033;-75
2021/09/27 00:46:15;;;;;;;31.23;17.85;;;;;;;;;;5018811;28;20026;-76
2021/09/27 00:48:41;;;;;;;27.52;16.67;;;;;;;;;;5029791;28;20025;-75
2021/09/27 00:51:09;;;;;;;23.50;17.20;;;;;;;;;;5031846;28;20482;-75
2021/09/27 00:53:51;;;;;;;24.25;17.38;;;;;;;;;;5014256;28;20029;-76
2021/09/27 00:56:23;;;;;;;26.75;17.75;;;;;;;;;;5032366;28;20048;-76
2021/09/27 00:58:49;;;;;;;25.67;18.25;;;;;;;;;;5031736;28;20026;-75
2021/09/27 01:01:16;;;;;;;25.08;17.90;;;;;;;;;;5029287;28;20045;-76
2021/09/27 01:03:42;;;;;;;26.60;18.17;;;;;;;;;;5012232;28;20042;-75
2021/09/27 01:06:26;;;;;;;29.90;18.05;;;;;;;;;;5012612;28;20048;-75
2021/09/27 01:09:06;;;;;;;26.60;17.20;;;;;;;;;;5012212;28;20537;-76
2021/09/27 01:11:38;;;;;;;25.90;17.67;;;;;;;;;;5010516;28;20125;-75
2021/09/27 01:14:04;;;;;;;28.48;17.05;;;;;;;;;;5012351;28;20033;-75
2021/09/27 01:16:36;;;;;;;23.02;16.45;;;;;;;;;;5021398;28;20482;-76
2021/09/27 01:19:02;;;;;;;26.13;17.02;;;;;;;;;;5027879;28;20545;-76
2021/09/27 01:21:51;;;;;;;32.95;18.15;;;;;;;;;;4994934;28;20065;-75
2021/09/27 01:24:35;;;;;;;30.60;18.77;;;;;;;;;;4981553;28;20046;-75
2021/09/27 01:27:07;;;;;;;29.90;18.73;;;;;;;;;;5012324;28;20105;-76
2021/09/27 01:29:42;;;;;;;33.35;20.08;;;;;;;;;;5011815;28;20421;-76
2021/09/27 01:32:26;;;;;;;28.73;18.55;;;;;;;;;;5031372;28;20057;-75
2021/09/27 01:35:04;;;;;;;28.90;18.48;;;;;;;;;;5004511;28;20041;-75
2021/09/27 01:38:00;;;;;;;29.27;18.30;;;;;;;;;;5015062;28;20071;-75
2021/09/27 01:40:29;;;;;;;24.13;17.23;;;;;;;;;;5013800;28;20088;-74
2021/09/27 01:43:04;;;;;;;30.45;18.63;;;;;;;;;;5025196;28;20084;-75
2021/09/27 01:45:33;;;;;;;38.40;20.25;;;;;;;;;;5011901;28;20090;-75
2021/09/27 01:48:34;;;;;;;34.28;19.02;;;;;;;;;;5018336;28;20048;-75
2021/09/27 01:51:17;;;;;;;58.05;20.23;;;;;;;;;;4951161;29;20435;-75
2021/09/27 01:53:47;;;;;;;34.72;18.67;;;;;;;;;;5023401;28;20077;-75
2021/09/27 01:56:18;;;;;;;36.10;19.40;;;;;;;;;;5031392;28;20533;-75
2021/09/27 01:58:58;;;;;;;46.08;20.40;;;;;;;;;;5029875;28;20064;-75
2021/09/27 02:01:42;;;;;;;44.20;20.45;;;;;;;;;;5030683;28;20037;-75
2021/09/27 02:04:13;;;;;;;38.38;21.15;;;;;;;;;;5014661;28;20033;-76
2021/09/27 02:06:47;;;;;;;32.42;19.45;;;;;;;;;;5011884;28;20072;-76
2021/09/27 02:09:16;;;;;;;38.15;20.35;;;;;;;;;;5028101;28;20032;-75
2021/09/27 02:11:43;;;;;;;34.90;20.30;;;;;;;;;;5031083;28;20448;-76
2021/09/27 02:14:18;;;;;;;30.00;19.40;;;;;;;;;;5020957;28;20038;-75
2021/09/27 02:16:59;;;;;;;34.20;20.63;;;;;;;;;;5013988;28;20022;-75
2021/09/27 02:19:31;;;;;;;38.00;21.52;;;;;;;;;;5011889;28;20030;-75
2021/09/27 02:22:03;;;;;;;37.47;20.27;;;;;;;;;;5012281;28;20026;-75
2021/09/27 02:24:38;;;;;;;37.88;20.85;;;;;;;;;;5015710;28;20030;-75
2021/09/27 02:27:04;;;;;;;38.15;21.65;;;;;;;;;;5011054;28;20482;-75
2021/09/27 02:29:30;;;;;;;43.55;21.23;;;;;;;;;;5033762;28;20034;-75
2021/09/27 02:31:59;;;;;;;35.28;20.20;;;;;;;;;;5034986;28;20057;-75
2021/09/27 02:34:43;;;;;;;35.38;21.48;;;;;;;;;;5015871;28;20375;-76
2021/09/27 02:37:28;;;;;;;36.28;20.42;;;;;;;;;;5030053;28;20038;-75
2021/09/27 02:39:57;;;;;;;44.47;22.35;;;;;;;;;;5014660;28;20061;-75
2021/09/27 02:42:31;;;;;;;42.80;21.27;;;;;;;;;;5017235;28;20076;-76
2021/09/27 02:44:57;;;;;;;44.53;22.92;;;;;;;;;;5034008;28;20112;-76
2021/09/27 02:47:27;;;;;;;40.60;22.27;;;;;;;;;;5017034;28;20022;-76
2021/09/27 02:49:57;;;;;;;40.38;21.73;;;;;;;;;;5016015;28;20075;-76
2021/09/27 02:52:24;;;;;;;36.65;20.77;;;;;;;;;;5034334;28;20017;-76
2021/09/27 02:54:52;;;;;;;42.30;21.95;;;;;;;;;;5034321;28;20404;-75
2021/09/27 02:57:30;;;;;;;39.33;21.70;;;;;;;;;;5034216;28;20029;-76
2021/09/27 03:00:09;;;;;;;34.83;20.75;;;;;;;;;;5033544;28;20044;-75
2021/09/27 03:02:35;;;;;;;38.30;21.23;;;;;;;;;;5030389;28;20140;-76
2021/09/27 03:05:10;;;;;;;40.38;21.17;;;;;;;;;;5014515;28;20030;-76
2021/09/27 03:07:39;;;;;;;39.45;21.38;;;;;;;;;;5018384;28;20022;-75
2021/09/27 03:10:23;;;;;;;36.10;21.58;;;;;;;;;;5033958;28;20100;-75
2021/09/27 03:13:07;;;;;;;35.15;18.92;;;;;;;;;;5028632;28;20422;-76
2021/09/27 03:15:41;;;;;;;40.08;20.92;;;;;;;;;;5014606;28;20030;-75
2021/09/27 03:18:26;;;;;;;30.90;19.27;;;;;;;;;;5022537;28;20029;-75
2021/09/27 03:20:55;;;;;;;37.15;21.13;;;;;;;;;;5015841;28;20040;-75
2021/09/27 03:23:27;;;;;;;43.22;21.55;;;;;;;;;;5023854;28;20025;-75
2021/09/27 03:25:59;;;;;;;37.93;20.07;;;;;;;;;;5014357;28;20133;-76
2021/09/27 03:28:43;;;;;;;33.45;19.83;;;;;;;;;;5024847;28;20120;-76
2021/09/27 03:31:28;;;;;;;40.67;19.85;;;;;;;;;;5033357;28;20025;-75
2021/09/27 03:34:10;;;;;;;32.70;20.20;;;;;;;;;;5018506;28;20025;-75
2021/09/27 03:36:46;;;;;;;40.72;21.23;;;;;;;;;;5014241;28;20030;-76
2021/09/27 03:39:30;;;;;;;33.97;19.80;;;;;;;;;;5030247;28;20560;-75
2021/09/27 03:42:05;;;;;;;38.80;19.98;;;;;;;;;;5033904;28;20032;-76
2021/09/27 03:44:37;;;;;;;31.70;19.02;;;;;;;;;;5013996;28;20030;-76
2021/09/27 03:47:06;;;;;;;33.95;19.70;;;;;;;;;;5014147;28;20034;-76
2021/09/27 03:49:42;;;;;;;32.25;19.17;;;;;;;;;;5023415;28;20037;-75
2021/09/27 03:52:19;;;;;;;38.35;19.77;;;;;;;;;;5015278;28;20065;-75
2021/09/27 03:55:02;;;;;;;34.17;19.75;;;;;;;;;;5004347;28;20780;-76
2021/09/27 03:57:37;;;;;;;40.47;21.08;;;;;;;;;;5016645;28;20080;-75
2021/09/27 04:00:12;;;;;;;35.85;19.73;;;;;;;;;;5032863;28;20040;-75
2021/09/27 04:02:38;;;;;;;47.28;24.00;;;;;;;;;;5028967;28;20030;-76
2021/09/27 04:05:09;;;;;;;45.58;23.83;;;;;;;;;;5013528;28;20359;-76
2021/09/27 04:07:54;;;;;;;39.50;22.88;;;;;;;;;;5032553;28;20034;-75
2021/09/27 04:10:21;;;;;;;39.80;21.85;;;;;;;;;;5033064;28;20021;-75
2021/09/27 04:12:52;;;;;;;40.88;21.38;;;;;;;;;;5027879;28;20026;-75
2021/09/27 04:15:37;;;;;;;37.30;21.15;;;;;;;;;;5025818;28;20030;-75
2021/09/27 04:18:13;;;;;;;33.28;20.25;;;;;;;;;;5025431;28;20030;-75
2021/09/27 04:20:47;;;;;;;40.20;20.83;;;;;;;;;;5012609;28;20495;-75
2021/09/27 04:23:36;;;;;;;33.83;20.85;;;;;;;;;;5022212;28;20036;-75
2021/09/27 04:26:05;;;;;;;37.28;20.95;;;;;;;;;;5033069;28;20544;-75
2021/09/27 04:28:48;;;;;;;34.80;20.10;;;;;;;;;;5021427;28;20087;-75
2021/09/27 04:31:17;;;;;;;;;;;;;;;;;;5013576;28;20075;-75
2021/09/27 04:33:55;;;;;;;42.58;20.75;;;;;;;;;;5015107;28;19913;-75
2021/09/27 04:36:24;;;;;;;35.58;20.30;;;;;;;;;;5011724;28;20030;-75
2021/09/27 04:38:51;;;;;;;41.10;21.08;;;;;;;;;;5026228;28;20026;-75
2021/09/27 04:41:40;;;;;;;42.13;21.65;;;;;;;;;;5032764;28;20029;-75
2021/09/27 04:44:15;;;;;;;42.78;22.02;;;;;;;;;;5005850;28;20188;-76
2021/09/27 04:46:50;;;;;;;44.55;22.08;;;;;;;;;;5012121;28;20018;-76
2021/09/27 04:49:25;;;;;;;44.63;21.80;;;;;;;;;;5022473;28;20633;-74
2021/09/27 04:52:03;;;;;;;35.88;19.98;;;;;;;;;;5012641;28;20026;-75
2021/09/27 04:54:48;;;;;;;35.85;20.15;;;;;;;;;;5013213;28;20076;-75
2021/09/27 04:57:26;;;;;;;39.70;21.05;;;;;;;;;;5024649;28;20034;-75
2021/09/27 04:59:55;;;;;;;32.83;20.85;;;;;;;;;;5013668;28;20033;-75
2021/09/27 05:02:40;;;;;;;35.03;20.83;;;;;;;;;;5030059;28;20434;-75
2021/09/27 05:05:17;;;;;;;37.75;20.58;;;;;;;;;;5002203;28;20375;-77
2021/09/27 05:07:49;;;;;;;34.33;19.42;;;;;;;;;;5019786;28;20096;-75
2021/09/27 05:10:39;;;;;;;39.63;21.15;;;;;;;;;;5031638;28;20558;-75
2021/09/27 05:13:13;;;;;;;38.33;21.33;;;;;;;;;;5024138;28;20080;-75
2021/09/27 05:15:52;;;;;;;37.58;20.83;;;;;;;;;;5012457;28;20038;-75
2021/09/27 05:18:39;;;;;;;34.33;18.58;;;;;;;;;;5021869;28;20030;-76
2021/09/27 05:21:26;;;;;;;36.00;20.00;;;;;;;;;;5031570;28;20036;-75
2021/09/27 05:23:55;;;;;;;33.95;20.05;;;;;;;;;;5022689;28;20053;-75
2021/09/27 05:26:30;;;;;;;34.78;20.65;;;;;;;;;;5038253;28;20112;-76
2021/09/27 05:29:12;;;;;;;34.75;19.88;;;;;;;;;;5034184;28;20032;-75
2021/09/27 05:31:53;;;;;;;33.63;20.60;;;;;;;;;;5032708;28;20029;-75
2021/09/27 05:34:42;;;;;;;35.63;21.92;;;;;;;;;;5014119;28;20030;-76
2021/09/27 05:37:14;;;;;;;39.88;20.98;;;;;;;;;;5012996;28;20034;-76
2021/09/27 05:39:40;;;;;;;34.47;19.17;;;;;;;;;;5002898;28;20030;-76
2021/09/27 05:42:21;;;;;;;36.38;20.52;;;;;;;;;;5012486;28;20664;-75
2021/09/27 05:44:55;;;;;;;38.03;21.50;;;;;;;;;;5014919;28;20040;-74
2021/09/27 05:47:27;;;;;;;39.05;22.48;;;;;;;;;;4996475;28;20466;-75
2021/09/27 05:50:09;;;;;;;43.95;21.65;;;;;;;;;;5031604;28;20104;-75
2021/09/27 05:52:50;;;;;;;40.47;21.90;;;;;;;;;;5031276;28;20468;-76
2021/09/27 05:55:16;;;;;;;52.17;24.92;;;;;;;;;;5018950;22;20133;-75
2021/09/27 05:57:50;;;;;;;51.30;25.42;;;;;;;;;;4997647;28;20100;-75
2021/09/27 06:00:16;;;;;;;54.53;23.58;;;;;;;;;;4992870;28;20054;-75
2021/09/27 06:02:57;;;;;;;52.05;24.15;;;;;;;;;;4990514;28;20057;-76
2021/09/27 06:05:31;;;;;;;48.63;25.92;;;;;;;;;;4991891;28;20109;-76
2021/09/27 06:08:01;;;;;;;36.28;21.73;;;;;;;;;;4992210;28;20112;-75
2021/09/27 06:10:29;;;;;;;36.63;20.73;;;;;;;;;;4991716;28;20099;-75
2021/09/27 06:13:16;;;;;;;35.65;18.20;;;;;;;;;;4991764;28;20027;-75
2021/09/27 06:15:46;;;;;;;26.75;17.58;;;;;;;;;;4991931;28;20506;-75
2021/09/27 06:18:25;;;;;;;30.70;18.17;;;;;;;;;;4991927;28;20023;-75
2021/09/27 06:21:10;;;;;;;26.98;17.45;;;;;;;;;;4989905;28;20529;-76
2021/09/27 06:23:54;;;;;;;28.30;18.10;;;;;;;;;;4991808;28;20030;-75
2021/09/27 06:26:21;;;;;;;26.23;16.75;;;;;;;;;;4988183;28;20030;-78
2021/09/27 06:28:50;;;;;;;33.85;18.15;;;;;;;;;;4994058;28;20057;-77
2021/09/27 06:31:39;;;;;;;26.08;17.20;;;;;;;;;;4992251;28;20048;-76
2021/09/27 06:34:19;;;;;;;24.42;15.85;;;;;;;;;;4991788;28;20037;-78
2021/09/27 06:36:45;;;;;;;31.73;17.50;;;;;;;;;;4992526;28;20037;-78
2021/09/27 06:39:14;;;;;;;36.30;18.20;;;;;;;;;;4992021;28;20073;-76
2021/09/27 06:41:41;;;;;;;46.05;19.38;;;;;;;;;;4992107;28;20483;-76
2021/09/27 06:44:07;;;;;;;33.47;19.33;;;;;;;;;;4990388;28;20038;-75
2021/09/27 06:46:33;;;;;;;35.28;20.58;;;;;;;;;;4991812;28;20034;-76
2021/09/27 06:48:59;;;;;;;31.30;18.17;;;;;;;;;;4989932;28;20029;-76
2021/09/27 06:51:25;;;;;;;31.02;18.23;;;;;;;;;;4990112;28;20034;-77
2021/09/27 06:53:51;;;;;;;37.95;21.75;;;;;;;;;;4990442;28;20034;-78
2021/09/27 06:56:17;;;;;;;32.53;21.25;;;;;;;;;;4997041;28;20062;-77
2021/09/27 06:58:43;;;;;;;29.60;19.15;;;;;;;;;;4991394;28;20042;-77
2021/09/27 07:01:09;;;;;;;27.95;18.23;;;;;;;;;;4990837;28;20093;-76
2021/09/27 07:03:35;;;;;;;26.42;17.23;;;;;;;;;;5002380;28;20026;-76
2021/09/27 07:06:01;;;;;;;25.63;17.33;;;;;;;;;;4991830;28;20077;-77
2021/09/27 07:08:27;;;;;;;22.08;15.73;;;;;;;;;;4990944;28;20026;-78
2021/09/27 07:10:53;;;;;;;21.88;15.10;;;;;;;;;;4994428;28;20030;-76
2021/09/27 07:13:20;;;;;;;24.23;15.70;;;;;;;;;;4995072;28;20026;-77
2021/09/27 07:15:47;;;;;;;20.10;14.95;;;;;;;;;;4993403;28;20096;-76
2021/09/27 07:18:13;;;;;;;23.83;15.98;;;;;;;;;;4993850;28;20113;-77
2021/09/27 07:20:39;;;;;;;19.45;15.23;;;;;;;;;;4994245;28;20053;-76
2021/09/27 07:23:06;;;;;;;22.13;15.18;;;;;;;;;;4994429;28;20340;-76
2021/09/27 07:25:32;;;;;;;20.45;15.57;;;;;;;;;;4994707;28;20475;-76
2021/09/27 07:27:59;;;;;;;19.38;14.80;;;;;;;;;;4994975;28;20475;-76
2021/09/27 07:30:25;;;;;;;20.05;13.18;;;;;;;;;;4993926;28;20026;-76
2021/09/27 07:32:52;;;;;;;14.00;10.15;;;;;;;;;;4994763;28;20026;-76
2021/09/27 07:35:23;;;;;;;12.05;9.80;;;;;;;;;;4961338;28;20466;-76
2021/09/27 07:37:49;;;;;;;9.60;8.10;;;;;;;;;;4975303;28;20058;-76
2021/09/27 07:40:18;;;;;;;10.88;9.32;;;;;;;;;;4994909;28;20026;-76
2021/09/27 07:42:44;;;;;;;9.80;8.15;;;;;;;;;;4994373;28;20045;-75
2021/09/27 07:45:12;;;;;;;8.27;7.10;;;;;;;;;;4994422;28;20141;-76
2021/09/27 07:47:38;;;;;;;9.20;7.50;;;;;;;;;;4994529;28;20032;-76
2021/09/27 07:50:05;;;;;;;8.52;6.95;;;;;;;;;;4993625;28;20041;-76
2021/09/27 07:52:31;;;;;;;9.25;7.07;;;;;;;;;;4994487;28;20027;-76
2021/09/27 07:54:57;;;;;;;7.82;6.13;;;;;;;;;;4976469;28;20069;-76
2021/09/27 07:57:23;;;;;;;9.13;7.35;;;;;;;;;;4994268;28;20026;-76
2021/09/27 07:59:53;;;;;;;10.65;6.90;;;;;;;;;;4993445;28;20041;-76
2021/09/27 08:02:19;;;;;;;7.90;6.63;;;;;;;;;;4996560;28;20149;-76
2021/09/27 08:04:45;;;;;;;6.82;6.13;;;;;;;;;;5002107;28;20031;-76
2021/09/27 08:07:12;;;;;;;7.47;6.13;;;;;;;;;;4976982;28;20447;-76
2021/09/27 08:09:38;;;;;;;7.65;6.40;;;;;;;;;;4992972;28;20101;-76
2021/09/27 08:12:04;;;;;;;6.85;6.15;;;;;;;;;;4993844;28;20084;-76
2021/09/27 08:14:30;;;;;;;8.75;6.13;;;;;;;;;;4993925;28;20043;-76
2021/09/27 08:16:56;;;;;;;7.97;6.30;;;;;;;;;;4993954;28;20026;-76
2021/09/27 08:19:24;;;;;;;7.72;6.63;;;;;;;;;;4993344;28;20426;-76
2021/09/27 08:21:53;;;;;;;7.90;6.50;;;;;;;;;;4993556;28;20101;-76
2021/09/27 08:24:19;;;;;;;16.58;8.55;;;;;;;;;;4993378;28;20526;-76
2021/09/27 08:26:46;;;;;;;8.00;6.30;;;;;;;;;;4993744;28;20035;-76
2021/09/27 08:29:12;;;;;;;7.63;6.78;;;;;;;;;;4993197;28;20022;-76
2021/09/27 08:31:38;;;;;;;8.48;6.90;;;;;;;;;;4976814;28;20026;-77
2021/09/27 08:34:04;;;;;;;9.77;6.93;;;;;;;;;;4993223;28;20040;-76
2021/09/27 08:36:30;;;;;;;9.32;7.03;;;;;;;;;;4976112;28;20064;-76
2021/09/27 08:38:57;;;;;;;9.48;6.97;;;;;;;;;;5000211;28;20026;-76
2021/09/27 08:41:29;;;;;;;10.73;7.63;;;;;;;;;;4994245;28;20034;-76
2021/09/27 08:43:58;;;;;;;10.40;7.25;;;;;;;;;;4993580;28;20033;-76
2021/09/27 08:46:24;;;;;;;8.40;7.50;;;;;;;;;;4993276;28;20046;-76
2021/09/27 08:49:26;;;;;;;8.40;7.40;;;;;;;;;;4993084;28;20026;-76
2021/09/27 08:51:52;;;;;;;8.73;7.20;;;;;;;;;;4933785;29;20036;-76
2021/09/27 08:54:20;;;;;;;9.57;7.32;;;;;;;;;;4984801;28;20057;-76
2021/09/27 08:56:52;;;;;;;7.78;6.97;;;;;;;;;;4997996;28;20341;-75
2021/09/27 08:59:28;;;;;;;9.77;6.55;;;;;;;;;;4996493;28;20479;-75
2021/09/27 09:01:54;;;;;;;7.82;5.88;;;;;;;;;;4995731;28;20018;-76
2021/09/27 09:04:25;;;;;;;11.40;5.35;;;;;;;;;;4993346;28;20026;-76
2021/09/27 09:06:53;;;;;;;7.55;5.22;;;;;;;;;;4993262;28;20034;-76
2021/09/27 09:09:20;;;;;;;5.13;4.40;;;;;;;;;;4994937;28;20483;-76
2021/09/27 09:11:45;;;;;;;6.70;4.68;;;;;;;;;;4975511;28;20394;-76
2021/09/27 09:14:26;;;;;;;8.07;4.45;;;;;;;;;;4973711;28;20029;-77
2021/09/27 09:16:53;;;;;;;5.68;4.25;;;;;;;;;;4992869;28;20030;-76
2021/09/27 09:19:22;;;;;;;6.00;4.38;;;;;;;;;;4992298;28;20038;-76
2021/09/27 09:21:52;;;;;;;5.72;4.40;;;;;;;;;;4992601;28;20034;-76
2021/09/27 09:24:23;;;;;;;5.47;4.03;;;;;;;;;;4991925;28;20030;-76
2021/09/27 09:26:50;;;;;;;6.90;4.10;;;;;;;;;;4992673;28;20083;-76
2021/09/27 09:29:24;;;;;;;5.00;4.38;;;;;;;;;;4992287;28;20023;-77
2021/09/27 09:32:01;;;;;;;5.95;3.78;;;;;;;;;;4991783;28;20041;-76
2021/09/27 09:34:34;;;;;;;6.07;3.88;;;;;;;;;;5009760;28;20053;-77
2021/09/27 09:37:05;;;;;;;8.30;3.50;;;;;;;;;;4986566;28;20022;-76
2021/09/27 09:39:33;;;;;;;5.40;3.63;;;;;;;;;;4991874;28;20027;-76
2021/09/27 09:42:02;;;;;;;4.88;3.92;;;;;;;;;;4992337;28;20032;-76
2021/09/27 09:44:31;;;;;;;4.35;3.63;;;;;;;;;;4992310;28;20026;-76
2021/09/27 09:47:01;;;;;;;6.55;4.25;;;;;;;;;;4992312;28;20077;-77
2021/09/27 09:49:30;;;;;;;7.53;3.83;;;;;;;;;;4991813;28;20494;-76
2021/09/27 09:52:01;;;;;;;5.82;3.70;;;;;;;;;;4978404;28;20038;-76
2021/09/27 09:54:38;;;;;;;8.52;3.90;;;;;;;;;;4974501;28;20173;-77
2021/09/27 09:57:04;;;;;;;6.47;3.33;;;;;;;;;;5004139;28;20030;-77
2021/09/27 09:59:34;;;;;;;5.70;3.33;;;;;;;;;;5011549;28;20418;-77
2021/09/27 10:02:01;;;;;;;6.55;3.55;;;;;;;;;;4998304;28;20033;-77
2021/09/27 10:04:30;;;;;;;4.18;2.88;;;;;;;;;;4992079;28;20031;-77
2021/09/27 10:07:08;;;;;;;5.25;3.13;;;;;;;;;;4992372;28;20027;-77
2021/09/27 10:09:38;;;;;;;5.93;3.22;;;;;;;;;;4991644;28;20027;-76
2021/09/27 10:12:06;;;;;;;4.15;3.00;;;;;;;;;;4991092;28;20058;-76
2021/09/27 10:14:34;;;;;;;3.83;2.80;;;;;;;;;;4977939;28;20037;-77
2021/09/27 10:17:25;;;;;;;4.22;2.50;;;;;;;;;;4992038;28;20030;-77
2021/09/27 10:20:11;;;;;;;10.63;2.72;;;20.10;99.90;;;;;;4991782;28;20061;-77
2021/09/27 10:22:39;;;;;;;3.72;2.85;;;27.80;97.10;;;;;;4990768;28;20072;-77
2021/09/27 10:25:28;;;;;;;4.22;2.40;;;28.30;94.30;;;;;;4991707;28;20030;-77
2021/09/27 10:27:55;;;;;;;3.83;2.67;;;27.90;93.20;;;;;;4979976;28;20056;-77
2021/09/27 10:30:38;;;;;;;3.63;2.60;;;27.50;94.00;;;;;;4991310;28;20033;-77
2021/09/27 10:33:16;;;;;;;3.65;2.47;;;27.10;93.60;;;;;;4991886;28;20053;-77
2021/09/27 10:36:07;;;;;;;3.75;2.47;;;27.50;94.10;;;;;;4991733;28;20022;-77
2021/09/27 10:38:42;;;;;;;2.85;2.00;;;27.70;92.10;;;;;;4991643;28;20030;-77
2021/09/27 10:41:20;;;;;;;4.53;2.65;;;27.60;91.30;;;;;;4991618;28;20019;-77
2021/09/27 10:43:48;;;;;;;2.72;2.35;;;27.50;93.50;;;;;;4993107;28;20054;-77
2021/09/27 10:46:18;;;;;;;4.97;2.33;;;28.00;92.70;;;;;;4995549;28;20038;-76
2021/09/27 10:48:52;;;;;;;4.10;2.00;;;28.00;92.00;;;;;;4995108;28;20406;-76
2021/09/27 10:51:23;;;;;;;3.22;1.95;;;27.70;91.40;;;;;;4995211;28;20434;-76
2021/09/27 10:54:22;;;;;;;4.65;2.10;;;27.50;90.60;;;;;;4995044;28;20092;-76
2021/09/27 10:56:55;;;;;;;3.60;2.30;;;27.00;91.40;;;;;;4978346;28;20179;-76
2021/09/27 10:59:35;;;;;;;3.53;2.53;;;26.30;92.80;;;;;;4984025;28;20034;-76
2021/09/27 11:02:13;;;;;;;5.25;2.40;;;26.00;94.10;;;;;;4994071;28;20507;-76
2021/09/27 11:04:45;;;;;;;4.68;3.28;;;26.70;93.10;;;;;;4995433;28;20034;-76
2021/09/27 11:07:30;;;;;;;4.97;2.40;;;27.10;92.50;;;;;;4995190;28;20015;-76
2021/09/27 11:09:58;;;;;;;5.82;2.30;;;27.10;92.00;;;;;;4994249;28;20035;-76
2021/09/27 11:12:37;;;;;;;4.03;2.40;;;26.50;92.90;;;;;;4994835;28;20030;-76
2021/09/27 11:15:32;;;;;;;4.10;2.58;;;26.00;93.60;;;;;;4989958;28;20045;-76
2021/09/27 11:18:29;;;;;;;3.67;2.25;;;25.40;95.10;;;;;;4993370;28;20499;-76
2021/09/27 11:20:58;;;;;;;4.43;2.55;;;25.10;94.90;;;;;;4973749;28;20034;-76
2021/09/27 11:23:35;;;;;;;3.45;2.20;;;24.90;96.10;;;;;;4994305;28;20069;-76
2021/09/27 11:26:18;;;;;;;4.80;2.03;;;24.90;97.00;;;;;;4988499;28;20061;-76
2021/09/27 11:28:53;;;;;;;2.72;2.42;;;25.00;96.60;;;;;;4989547;28;20553;-76
2021/09/27 11:31:21;;;;;;;3.47;2.20;;;24.80;96.90;;;;;;4984713;28;20034;-76
2021/09/27 11:33:58;;;;;;;4.43;2.15;;;24.90;97.10;;;;;;4988762;28;20026;-76
2021/09/27 11:36:27;;;;;;;3.92;2.65;;;24.90;96.60;;;;;;4990422;28;20049;-76
2021/09/27 11:39:32;;;;;;;3.78;2.25;;;24.70;97.30;;;;;;4990297;28;20026;-79
2021/09/27 11:42:24;;;;;;;4.32;2.67;;;24.90;97.30;;;;;;4965319;28;20529;-78
2021/09/27 11:44:58;;;;;;;2.97;2.30;;;25.00;97.40;;;;;;4996913;28;20089;-78
2021/09/27 11:47:42;;;;;;;4.13;2.40;;;24.70;97.70;;;;;;4989740;28;20399;-77
2021/09/27 11:50:30;;;;;;;3.00;2.40;;;24.90;97.90;;;;;;4979671;28;20392;-78
2021/09/27 11:53:31;;;;;;;3.83;2.45;;;25.10;98.30;;;;;;4992047;28;20030;-80
2021/09/27 11:56:27;;;;;;;4.10;2.00;;;25.40;98.30;;;;;;4988155;28;20129;-78
2021/09/27 11:58:59;;;;;;;3.85;2.15;;;25.60;97.10;;;;;;4990064;28;20475;-78
2021/09/27 12:01:52;;;;;;;2.92;1.70;;;25.50;96.70;;;;;;5003309;23;20051;-78
2021/09/27 12:04:33;;;;;;;2.78;2.10;;;25.20;96.40;;;;;;4980968;28;20147;-78
2021/09/27 12:07:02;;;;;;;3.58;1.98;;;25.20;97.00;;;;;;4994480;28;20121;-78
2021/09/27 12:09:33;;;;;;;2.67;1.65;;;25.30;96.40;;;;;;4994097;28;20490;-77
2021/09/27 12:11:59;;;;;;;2.75;1.92;;;25.10;95.80;;;;;;5012928;28;20571;-78
2021/09/27 12:14:34;;;;;;;3.03;2.03;;;25.00;96.10;;;;;;5012877;28;20041;-79
2021/09/27 12:17:02;;;;;;;2.38;1.98;;;25.00;97.00;;;;;;4980248;28;20022;-80
2021/09/27 12:19:33;;;;;;;3.28;1.92;;;24.70;98.20;;;;;;4988321;28;20102;-79
2021/09/27 12:22:05;;;;;;;1.83;1.42;;;24.80;96.10;;;;;;4985415;28;20022;-78
2021/09/27 12:24:32;;;;;;;2.30;1.50;;;24.90;97.30;;;;;;5012919;28;20026;-77
2021/09/27 12:27:09;;;;;;;2.90;1.75;;;24.70;96.90;;;;;;5012514;28;20072;-79
2021/09/27 12:29:49;;;;;;;1.95;1.50;;;24.70;97.50;;;;;;4994712;28;20463;-78
2021/09/27 12:32:15;;;;;;;3.70;1.88;;;25.10;96.60;;;;;;5012428;28;20030;-79
2021/09/27 12:34:47;;;;;;;3.92;1.85;;;25.40;95.60;;;;;;5002059;28;20011;-79
2021/09/27 12:37:16;;;;;;;2.55;1.58;;;26.20;94.70;;;;;;4992742;28;20054;-78
2021/09/27 12:39:43;;;;;;;2.30;1.60;;;26.00;94.80;;;;;;5001025;28;20455;-77
2021/09/27 12:42:25;;;;;;;1.92;1.40;;;26.20;95.30;;;;;;5012237;28;20044;-79
2021/09/27 12:45:03;;;;;;;3.63;1.70;;;27.10;93.70;;;;;;5012794;28;20025;-78
2021/09/27 12:47:29;;;;;;;1.58;1.35;;;27.70;92.20;;;;;;4998313;28;20019;-79
2021/09/27 12:50:00;;;;;;;3.40;1.60;;;27.80;90.50;;;;;;4992729;28;20022;-77
2021/09/27 12:52:37;;;;;;;1.38;1.23;;;27.20;91.20;;;;;;4994035;28;20026;-77
2021/09/27 12:55:11;;;;;;;2.47;1.70;;;26.80;91.30;;;;;;5003153;28;20394;-78
2021/09/27 12:57:42;;;;;;;1.95;1.50;;;26.40;92.30;;;;;;5012719;28;20034;-81
2021/09/27 13:00:30;;;;;;;1.52;1.30;;;26.10;92.10;;;;;;5008171;28;20058;-77
2021/09/27 13:02:57;;;;;;;2.60;1.27;;;25.70;92.80;;;;;;5007091;28;20064;-76
2021/09/27 13:05:28;;;;;;;4.28;1.63;;;25.70;92.50;;;;;;5022450;28;20033;-77
2021/09/27 13:07:59;;;;;;;2.10;1.50;;;25.90;93.30;;;;;;5021938;28;20113;-78
2021/09/27 13:10:32;;;;;;;3.70;1.83;;;25.80;93.20;;;;;;5009617;28;20506;-78
2021/09/27 13:13:05;;;;;;;2.20;1.70;;;25.50;93.20;;;;;;5011607;28;20034;-78
2021/09/27 13:15:36;;;;;;;2.63;1.52;;;25.40;93.90;;;;;;5002497;28;20022;-77
2021/09/27 13:18:04;;;;;;;3.95;1.50;;;25.30;94.50;;;;;;4987998;28;20037;-81
2021/09/27 13:20:59;;;;;;;3.58;1.58;;;25.40;94.30;;;;;;4990911;28;20029;-77
2021/09/27 13:23:40;;;;;;;2.53;1.60;;;25.60;95.00;;;;;;5002971;28;20037;-77
2021/09/27 13:26:13;;;;;;;3.25;1.70;;;26.00;94.20;;;;;;5008834;28;20030;-77
2021/09/27 13:28:44;;;;;;;2.53;1.70;;;26.70;93.80;;;;;;5010906;28;20450;-77
2021/09/27 13:31:16;;;;;;;2.83;1.60;;;27.60;93.20;;;;;;4992437;28;20025;-78
2021/09/27 13:33:49;;;;;;;3.70;1.55;;;27.80;91.50;;;;;;5001437;28;20030;-77
2021/09/27 13:36:39;;;;;;;3.63;1.77;;;27.10;91.60;;;;;;4992193;28;20034;-78
2021/09/27 13:39:27;;;;;;;2.65;1.73;;;26.20;92.70;;;;;;4992910;28;20516;-78
2021/09/27 13:42:04;;;;;;;3.45;1.83;;;25.50;93.90;;;;;;4992197;28;20022;-78
2021/09/27 13:44:33;;;;;;;2.05;1.48;;;25.10;94.60;;;;;;4976910;28;20031;-78
2021/09/27 13:47:00;;;;;;;2.42;1.48;;;24.70;96.00;;;;;;4992873;28;20072;-77
2021/09/27 13:49:25;;;;;;;4.00;1.40;;;24.50;96.20;;;;;;4991837;28;20085;-77
2021/09/27 13:51:51;;;;;;;3.00;1.88;;;24.30;96.20;;;;;;4998270;28;20026;-77
2021/09/27 13:54:17;;;;;;;3.97;1.67;;;24.40;96.40;;;;;;4995346;28;20425;-77
2021/09/27 13:56:43;;;;;;;3.63;1.70;;;24.50;97.50;;;;;;4991531;28;20050;-77
2021/09/27 13:59:09;;;;;;;2.78;1.50;;;24.40;96.80;;;;;;4991295;28;20068;-77
2021/09/27 14:01:35;;;;;;;3.65;1.83;;;24.60;97.30;;;;;;4986184;28;20043;-77
2021/09/27 14:04:02;;;;;;;3.67;1.60;;;24.70;95.70;;;;;;4966151;28;20056;-77
2021/09/27 14:06:29;;;;;;;3.17;1.90;;;24.50;96.90;;;;;;5012617;28;20026;-77
2021/09/27 14:08:56;;;;;;;3.78;1.75;;;24.30;98.10;;;;;;5011945;28;20060;-78
2021/09/27 14:11:22;;;;;;;3.05;1.70;;;24.10;98.80;;;;;;4995622;28;20034;-77
2021/09/27 14:13:48;;;;;;;3.72;1.67;;;23.90;98.40;;;;;;5012796;28;20494;-77
2021/09/27 14:16:16;;;;;;;6.00;1.90;;;23.70;99.90;;;;;;5012184;28;20030;-77
2021/09/27 14:18:44;;;;;;;1.90;1.50;;;23.70;99.90;;;;;;5014615;28;20060;-77
2021/09/27 14:21:11;;;;;;;3.35;1.65;;;;;;;;;;5015947;28;20597;-77
2021/09/27 14:23:37;;;;;;;4.32;1.85;;;;;;;;;;5016714;28;20034;-78
2021/09/27 14:26:06;;;;;;;2.85;1.60;;;;;;;;;;5018571;28;20026;-78
2021/09/27 14:28:34;;;;;;;2.65;1.60;;;23.30;99.90;;;;;;4992807;28;20026;-79